Startpagina
METAR-TAF:

METAR-TAF

Vliegvelden :

Heringsdorf, Duitsland

breedte: 53-53N, lengte: 014-09E, hoogte: 28 m

METAR: ontbreekt

Tijdstip: 20:04 (19:04 UTC)

Verwachting

Dit bericht is 26 uur en het 4 minuten geleden gemaakt, om 17:00 UTC
Verwachting geldig van 16 om 18 UTC tot 17 om 03 UTC
Wind 12 kt uit het zuidzuidwesten
Zicht 10 km of meer
geen wolken onder 1500 m en geen cumulonimbus
Tijdelijke
van 16 om 18 UTC tot 16 om 21 UTC
Wind 25 kt uit het zuidzuidwesten met uitschieters tot 35 kt
Wijzigt naar
van 16 om 22 UTC tot 16 om 24 UTC
Wind 15 kt uit het westzuidwesten met uitschieters tot 30 kt
Tijdelijke
van 16 om 22 UTC tot 17 om 03 UTC
Zicht: 4500 m
Gebroken wolken op 900 ft
regen

TAF: EDAH 161700Z 1618/1703 21012KT CAVOK TEMPO 1618/1621 21025G35KT BECMG 1622/1624 25015G30KT TEMPO 1622/1703 4500 RA BKN009

Waarnemingen en weersverwachtingen van meer dan 4000 vliegvelden (METAR en TAF).

De beschikbare stations zijn de gele en rode punten op de kaart.

Ga met uw muis naar het station om de naam te zien.

Klik dan om waarnemingen en weersverwachtingen te zien.

kaart wijzigen: klik op de groene knoppen met een zwart kruis om in te zoomen, op de groene knop met een streepje om uit te zoomen of op de groene pijlen voor aangrenzende kaarten.


METAR-TAF: